Time;durP1;ratioP1;P1;durP2;ratioP2;P2;SDS_P1;SDS_P2;PMS_P1;PMS_P2;Temp;Humidity;BMP_temperature;BMP_pressure;BME280_temperature;BME280_humidity;BME280_pressure;Samples;Min_cycle;Max_cycle;Signal;HPM_P1;HPM_P2
2021/12/12 00:00:20;;;;;;;30.47;17.43;;;6.00;77.80;;;8.67;60.70;102007.78;4937973;29;20280;-49
2021/12/12 00:02:59;;;;;;;33.13;19.03;;;6.00;77.80;;;8.70;61.09;101994.41;4937802;29;20201;-53
2021/12/12 00:05:33;;;;;;;35.23;18.50;;;6.00;78.00;;;8.70;61.00;101991.78;4937521;29;20682;-50
2021/12/12 00:08:03;;;;;;;37.07;19.47;;;6.00;78.00;;;8.68;61.24;101980.56;4937504;29;20225;-51
2021/12/12 00:10:35;;;;;;;34.53;18.93;;;6.00;78.30;;;8.66;60.99;101993.00;4938128;29;20213;-50
2021/12/12 00:13:09;;;;;;;37.10;20.40;;;6.00;78.10;;;8.64;61.38;101982.63;4937568;29;20223;-50
2021/12/12 00:15:37;;;;;;;40.33;22.30;;;6.00;78.30;;;8.64;61.52;101989.66;4937346;29;20188;-50
2021/12/12 00:18:05;;;;;;;37.47;21.77;;;6.00;78.50;;;8.63;61.63;101991.47;4937007;29;20563;-48
2021/12/12 00:20:34;;;;;;;41.90;21.97;;;6.00;78.50;;;8.64;61.71;101994.91;4938105;29;20221;-49
2021/12/12 00:23:04;;;;;;;35.13;20.03;;;6.00;78.60;;;8.64;61.71;101995.75;4937738;29;20236;-48
2021/12/12 00:25:36;;;;;;;41.73;20.80;;;6.00;78.70;;;8.62;61.54;101986.34;4939073;29;20568;-50
2021/12/12 00:28:06;;;;;;;35.27;20.03;;;6.00;78.70;;;8.66;61.92;101985.13;4936727;29;20214;-47
2021/12/12 00:30:35;;;;;;;28.60;17.27;;;6.00;78.80;;;8.70;61.60;101983.91;4937039;29;20210;-49
2021/12/12 00:33:04;;;;;;;36.73;20.27;;;6.00;79.50;;;8.73;61.52;101983.63;4936888;29;20198;-49
2021/12/12 00:35:32;;;;;;;35.40;19.00;;;6.00;78.90;;;8.77;61.90;101979.81;4937423;29;20188;-50
2021/12/12 00:38:05;;;;;;;34.30;20.37;;;6.00;78.90;;;8.76;61.50;101975.50;4937122;29;20218;-49
2021/12/12 00:40:38;;;;;;;37.00;21.10;;;6.10;79.10;;;8.74;61.80;101969.56;4936969;29;20202;-46
2021/12/12 00:43:13;;;;;;;40.70;21.33;;;6.10;79.10;;;8.71;61.88;101970.66;4936902;29;20203;-47
2021/12/12 00:45:41;;;;;;;32.93;19.70;;;6.10;79.20;;;8.72;62.36;101971.50;4937431;29;20195;-49
2021/12/12 00:48:09;;;;;;;32.47;19.07;;;6.10;79.30;;;8.71;62.31;101961.94;4936625;29;20604;-50
2021/12/12 00:50:40;;;;;;;32.53;19.40;;;6.10;79.30;;;8.74;61.43;101961.69;4936796;29;20190;-52
2021/12/12 00:53:13;;;;;;;35.07;20.70;;;6.10;79.30;;;8.78;62.11;101955.19;4936699;29;20185;-52
2021/12/12 00:55:44;;;;;;;28.93;17.70;;;6.10;79.50;;;8.84;62.15;101959.94;4917775;29;20190;-47
2021/12/12 00:58:16;;;;;;;33.03;19.00;;;6.20;79.60;;;8.88;62.02;101949.97;4924855;29;20613;-48
2021/12/12 01:00:52;;;;;;;32.63;19.13;;;6.20;79.40;;;8.92;62.03;101952.19;4936312;29;20562;-51
2021/12/12 01:03:26;;;;;;;31.93;18.90;;;6.20;79.50;;;8.94;61.83;101947.63;4936335;29;20559;-51
2021/12/12 01:05:58;;;;;;;32.53;19.43;;;6.20;79.30;;;8.96;61.59;101943.13;4936108;29;20201;-50
2021/12/12 01:08:29;;;;;;;33.10;19.77;;;6.20;79.30;;;8.95;61.92;101945.84;4936146;29;20213;-49
2021/12/12 01:11:03;;;;;;;29.63;18.80;;;6.30;79.30;;;8.94;61.70;101950.28;4936075;29;20203;-50
2021/12/12 01:13:31;;;;;;;29.40;17.73;;;6.30;79.10;;;8.96;61.65;101948.38;4936377;29;20190;-50
2021/12/12 01:16:07;;;;;;;36.43;20.83;;;6.30;79.10;;;8.97;61.50;101950.00;4935933;29;20202;-52
2021/12/12 01:18:42;;;;;;;30.10;19.37;;;6.30;79.00;;;8.98;62.01;101946.44;4935941;29;20579;-51
2021/12/12 01:21:15;;;;;;;35.03;20.77;;;6.30;79.10;;;8.99;61.89;101948.06;4935763;29;20181;-48
2021/12/12 01:23:49;;;;;;;35.27;20.90;;;6.30;79.00;;;9.02;61.64;101950.44;4936172;29;20239;-51
2021/12/12 01:26:17;;;;;;;32.40;19.43;;;6.30;79.00;;;9.02;61.85;101947.81;4936246;29;20216;-49
2021/12/12 01:28:54;;;;;;;35.00;19.97;;;6.40;78.90;;;9.01;61.88;101946.13;4936249;29;20212;-49
2021/12/12 01:31:30;;;;;;;36.77;21.43;;;6.30;78.80;;;9.00;61.80;101949.75;4936085;29;20216;-48
2021/12/12 01:34:12;;;;;;;35.33;22.00;;;6.40;78.80;;;8.96;61.59;101943.13;4919164;29;20197;-49
2021/12/12 01:37:09;;;;;;;33.03;20.13;;;6.40;78.80;;;8.95;61.88;101954.56;4936210;29;20651;-49
2021/12/12 01:39:38;;;;;;;36.17;21.83;;;6.30;78.70;;;8.93;61.88;101943.38;4935399;29;20218;-48
2021/12/12 01:42:11;;;;;;;31.83;19.43;;;6.30;78.80;;;8.96;61.98;101947.53;4936147;29;20262;-49
2021/12/12 01:44:46;;;;;;;35.77;21.10;;;6.30;78.90;;;8.96;61.81;101948.38;4936371;29;20201;-49
2021/12/12 01:47:20;;;;;;;36.33;21.57;;;6.40;79.10;;;9.00;61.89;101949.75;4936298;29;20195;-49
2021/12/12 01:49:53;;;;;;;32.93;21.53;;;6.30;79.10;;;8.98;62.03;101949.06;4936581;29;20201;-49
2021/12/12 01:52:25;;;;;;;38.73;22.43;;;6.30;79.00;;;8.98;61.97;101941.19;4935699;29;20198;-49
2021/12/12 01:55:01;;;;;;;36.63;22.47;;;6.40;79.10;;;8.97;61.88;101946.53;4922524;29;20664;-50
2021/12/12 01:57:36;;;;;;;34.27;20.10;;;6.40;79.10;;;8.96;62.08;101937.88;4917349;29;20220;-50
2021/12/12 02:00:16;;;;;;;33.93;20.73;;;6.40;79.10;;;8.95;62.32;101940.59;4917359;29;20218;-50
2021/12/12 02:02:44;;;;;;;34.83;22.03;;;6.40;79.20;;;8.98;62.16;101930.69;4917621;29;20233;-49
2021/12/12 02:05:17;;;;;;;36.33;21.87;;;6.40;79.10;;;8.97;62.34;101929.00;4920478;29;20581;-48
2021/12/12 02:07:53;;;;;;;33.43;19.57;;;6.40;79.20;;;9.03;61.99;101936.34;4921406;29;20240;-49
2021/12/12 02:10:31;;;;;;;43.43;24.27;;;6.40;79.30;;;9.05;62.08;101938.84;4920360;29;20200;-49
2021/12/12 02:13:03;;;;;;;37.60;22.70;;;6.40;79.30;;;9.11;62.31;101939.13;4920258;29;20209;-49
2021/12/12 02:15:34;;;;;;;38.47;22.60;;;6.50;79.30;;;9.14;62.28;101936.22;4920331;29;20187;-48
2021/12/12 02:18:06;;;;;;;44.63;24.80;;;6.50;79.30;;;9.15;62.10;101940.50;4919979;29;20703;-49
2021/12/12 02:20:47;;;;;;;41.30;23.60;;;6.50;79.40;;;9.19;62.04;101944.53;4919767;29;20257;-49
2021/12/12 02:23:35;;;;;;;42.43;24.57;;;6.60;79.30;;;9.23;61.92;101950.34;4904293;29;20206;-48
2021/12/12 02:37:11;;;;;;;44.00;25.87;;;6.70;79.20;;;9.39;61.39;101961.97;4939201;29;20192;-49
2021/12/12 02:39:41;;;;;;;46.33;24.93;;;6.70;79.10;;;9.40;61.50;101961.03;4939318;29;20590;-49
2021/12/12 02:42:13;;;;;;;37.47;22.80;;;6.80;79.20;;;9.47;61.70;101959.50;4939546;29;20205;-48
2021/12/12 02:44:43;;;;;;;45.47;27.17;;;6.80;79.10;;;9.53;60.98;101952.88;4938435;29;20196;-49
2021/12/12 02:47:19;;;;;;;40.07;25.07;;;6.90;79.10;;;9.58;61.29;101952.47;4939036;29;20194;-49
2021/12/12 02:52:24;;;;;;;45.37;26.10;;;6.90;79.10;;;9.61;61.61;101949.53;4939635;29;20197;-49
2021/12/12 02:54:56;;;;;;;38.30;24.47;;;6.90;78.90;;;9.62;61.73;101936.28;4939177;29;20206;-49
2021/12/12 02:57:24;;;;;;;41.53;23.17;;;6.90;78.80;;;9.69;61.03;101941.81;4938762;29;20221;-49
2021/12/12 02:59:52;;;;;;;47.33;26.03;;;7.00;78.80;;;9.71;61.38;101929.34;4938553;29;20222;-49
2021/12/12 03:02:27;;;;;;;45.67;25.47;;;7.00;78.80;;;9.73;60.74;101930.03;4938617;29;20216;-49
2021/12/12 03:04:59;;;;;;;44.77;26.80;;;7.00;78.70;;;9.75;60.62;101935.97;4939010;29;20221;-49
2021/12/12 03:07:27;;;;;;;48.07;26.40;;;7.00;78.60;;;9.77;61.07;101931.44;4939108;29;20218;-47
2021/12/12 03:09:58;;;;;;;37.93;24.87;;;7.10;78.60;;;9.77;61.03;101923.53;4939735;29;20202;-47
2021/12/12 03:12:31;;;;;;;38.23;25.17;;;7.10;79.30;;;9.77;60.84;101920.91;4939197;29;20200;-49
2021/12/12 03:15:05;;;;;;;36.40;22.67;;;7.10;78.50;;;9.78;60.63;101928.66;4920941;29;20221;-49
2021/12/12 03:17:33;;;;;;;43.67;25.00;;;7.10;78.40;;;9.78;60.97;101930.44;4938359;29;20314;-49
2021/12/12 03:20:10;;;;;;;40.27;24.10;;;7.10;78.40;;;9.80;60.68;101924.06;4938348;29;20214;-48
2021/12/12 03:22:38;;;;;;;42.03;25.70;;;7.20;78.40;;;9.82;60.64;101921.28;4938307;29;20191;-49
2021/12/12 03:25:08;;;;;;;36.53;23.67;;;7.20;78.30;;;9.82;60.98;101937.91;4937885;29;20309;-50
2021/12/12 03:27:36;;;;;;;44.23;24.70;;;7.20;78.30;;;9.84;60.90;101932.53;4937615;29;20229;-49
2021/12/12 03:30:06;;;;;;;40.30;23.90;;;7.20;78.30;;;9.84;61.04;101924.66;4937655;29;20186;-47
2021/12/12 03:32:34;;;;;;;42.90;24.87;;;7.20;78.20;;;9.88;60.99;101926.00;4937433;29;20204;-49
2021/12/12 03:35:04;;;;;;;40.67;23.27;;;7.20;78.20;;;9.89;60.47;101922.44;4938253;29;20192;-48
2021/12/12 03:37:33;;;;;;;37.97;23.23;;;7.20;78.20;;;9.90;61.16;101930.16;4937453;29;20531;-49
2021/12/12 03:40:12;;;;;;;29.90;18.87;;;7.20;78.00;;;9.93;60.40;101929.06;4937544;29;20573;-50
2021/12/12 03:42:45;;;;;;;37.90;23.17;;;7.30;78.10;;;9.96;60.52;101929.59;4937897;29;20202;-50
2021/12/12 03:45:13;;;;;;;36.57;22.03;;;7.30;78.80;;;10.00;60.75;101935.41;4937681;29;20189;-50
2021/12/12 03:47:45;;;;;;;35.87;22.30;;;7.30;78.00;;;10.02;60.04;101933.47;4937262;29;20217;-48
2021/12/12 03:50:18;;;;;;;31.37;20.23;;;7.30;77.80;;;10.01;60.79;101934.41;4937830;29;20249;-48
2021/12/12 03:52:46;;;;;;;38.70;21.97;;;7.30;77.80;;;10.03;60.25;101929.88;4937803;29;20202;-51
2021/12/12 03:55:16;;;;;;;33.10;20.37;;;7.30;77.70;;;10.03;60.03;101921.97;4937339;29;20201;-49
2021/12/12 03:57:48;;;;;;;39.83;21.53;;;7.30;77.60;;;10.06;60.83;101924.31;4937232;29;20214;-49
2021/12/12 04:00:21;;;;;;;36.13;21.27;;;7.40;77.70;;;10.06;60.29;101913.78;4937385;29;20305;-49
2021/12/12 04:02:49;;;;;;;31.83;20.23;;;7.40;77.50;;;10.05;60.44;101912.16;4937065;29;20209;-50
2021/12/12 04:05:17;;;;;;;34.77;21.37;;;7.40;77.50;;;10.05;59.95;101912.16;4937413;29;20548;-49
2021/12/12 04:07:46;;;;;;;29.97;18.80;;;7.40;77.40;;;10.08;59.99;101911.84;4936832;29;20209;-49
2021/12/12 04:10:19;;;;;;;31.70;19.20;;;7.40;77.40;;;10.08;60.31;101911.84;4937214;29;20198;-50
2021/12/12 04:12:48;;;;;;;31.13;20.80;;;7.40;77.50;;;10.10;59.75;101915.19;4937150;29;20213;-49
2021/12/12 04:15:17;;;;;;;29.63;20.00;;;7.50;77.40;;;10.09;60.07;101919.59;4937030;29;20257;-49
2021/12/12 04:17:45;;;;;;;29.67;19.63;;;7.40;77.10;;;10.11;60.33;101922.09;4936970;29;20228;-50
2021/12/12 04:20:21;;;;;;;28.27;18.57;;;7.40;77.20;;;10.09;59.67;101913.50;4936550;29;20619;-51
2021/12/12 04:22:48;;;;;;;31.27;19.10;;;7.40;77.10;;;10.08;60.22;101915.31;4936391;29;20276;-51
2021/12/12 04:25:17;;;;;;;33.33;19.13;;;7.40;77.10;;;10.09;60.18;101916.13;4936893;29;20202;-49
2021/12/12 04:27:45;;;;;;;26.70;17.37;;;7.40;77.00;;;10.10;59.69;101920.44;4936383;29;20224;-49
2021/12/12 04:30:15;;;;;;;28.77;18.47;;;7.50;77.00;;;10.07;60.54;101910.19;4936704;29;20205;-50
2021/12/12 04:32:46;;;;;;;25.37;17.60;;;7.50;77.00;;;10.06;60.19;101913.78;4937076;29;20280;-49
2021/12/12 04:35:19;;;;;;;28.90;16.17;;;7.50;77.10;;;10.10;60.51;101915.19;4938342;29;20182;-49
2021/12/12 04:37:48;;;;;;;24.50;16.87;;;7.50;77.10;;;10.14;60.34;101919.22;4936588;29;20622;-51
2021/12/12 04:40:21;;;;;;;24.80;15.47;;;7.50;77.00;;;10.15;59.65;101921.69;4936670;29;20214;-52
2021/12/12 04:42:52;;;;;;;25.00;15.50;;;7.50;77.10;;;10.19;59.81;101914.34;4936440;29;20202;-48
2021/12/12 04:45:49;;;;;;;21.40;15.20;;;7.50;77.10;;;10.17;59.67;101911.03;4936627;29;20196;-50
2021/12/12 04:51:20;;;;;;;26.30;16.50;;;7.50;77.00;;;10.16;59.90;101915.47;4936486;29;20198;-49
2021/12/12 04:53:58;;;;;;;25.13;14.63;;;7.50;76.90;;;10.17;59.75;101914.47;4931669;29;20202;-51
2021/12/12 04:56:35;;;;;;;22.53;14.20;;;7.60;77.00;;;10.23;59.77;101920.97;4917651;29;20193;-49
2021/12/12 04:59:10;;;;;;;22.07;13.93;;;7.60;77.10;;;10.26;59.79;101928.59;4916977;29;20301;-51
2021/12/12 05:01:44;;;;;;;23.13;14.57;;;7.60;77.20;;;10.29;59.97;101925.69;4917263;29;20221;-49
2021/12/12 05:04:22;;;;;;;23.90;13.50;;;7.60;77.10;;;10.31;59.38;101922.91;4923749;29;20229;-49
2021/12/12 05:06:59;;;;;;;24.07;13.40;;;7.60;77.20;;;10.28;59.59;101921.38;4936554;29;20189;-49
2021/12/12 05:09:33;;;;;;;22.97;14.43;;;7.60;77.10;;;10.26;60.21;101910.19;4937013;29;20244;-49
2021/12/12 05:12:12;;;;;;;20.47;13.37;;;7.60;77.00;;;10.23;60.07;101905.19;4936223;29;20535;-49
2021/12/12 05:14:52;;;;;;;20.40;13.47;;;7.60;76.90;;;10.23;59.83;101907.81;4936425;29;20510;-49
2021/12/12 05:17:24;;;;;;;22.67;13.07;;;7.60;76.90;;;10.26;59.91;101910.19;4936133;29;20217;-48
2021/12/12 05:19:57;;;;;;;20.20;12.60;;;7.60;77.00;;;10.29;60.23;101915.16;4936201;29;20316;-49
2021/12/12 05:22:33;;;;;;;21.30;13.50;;;7.60;77.20;;;10.28;59.96;101908.22;4936051;29;20193;-49
2021/12/12 05:25:06;;;;;;;18.50;12.80;;;7.60;77.20;;;10.27;60.26;101905.75;4936234;29;20209;-49
2021/12/12 05:27:38;;;;;;;19.90;12.33;;;7.60;77.30;;;10.27;60.08;101896.03;4935653;29;20210;-49
2021/12/12 05:30:13;;;;;;;19.10;11.37;;;7.60;77.20;;;10.28;59.71;101895.06;4935955;29;20201;-48
2021/12/12 05:32:42;;;;;;;17.27;12.20;;;7.60;77.30;;;10.31;60.32;101897.41;4936537;29;20190;-48
2021/12/12 05:35:14;;;;;;;17.90;10.97;;;7.60;77.40;;;10.32;59.91;101896.44;4936168;29;20190;-49
2021/12/12 05:37:47;;;;;;;20.23;12.37;;;7.60;77.50;;;10.27;60.71;101896.03;4935969;29;20743;-49
2021/12/12 05:40:15;;;;;;;20.73;13.20;;;7.60;77.50;;;10.23;60.67;101888.56;4939424;29;20225;-52
2021/12/12 05:42:45;;;;;;;26.07;12.43;;;7.60;77.50;;;10.20;60.10;101890.53;4939274;29;20193;-52
2021/12/12 05:45:14;;;;;;;19.27;11.77;;;7.60;77.50;;;10.18;60.55;101881.13;4939860;29;20194;-50
2021/12/12 05:47:44;;;;;;;22.50;11.10;;;7.60;77.70;;;10.16;60.24;101877.81;4939532;29;20217;-51
2021/12/12 05:50:14;;;;;;;24.90;12.13;;;7.60;77.60;;;10.12;61.08;101872.00;4942644;29;20273;-48
2021/12/12 05:52:44;;;;;;;20.77;11.17;;;7.60;77.70;;;10.13;60.58;101864.94;4943687;29;20212;-48
2021/12/12 05:55:16;;;;;;;17.27;10.77;;;7.60;77.80;;;10.10;61.12;101866.00;4942464;29;20215;-49
2021/12/12 05:57:53;;;;;;;19.47;11.00;;;7.50;77.80;;;10.11;60.73;101866.84;4940158;29;20694;-49
2021/12/12 06:00:26;;;;;;;18.43;11.20;;;7.50;77.80;;;10.12;60.82;101860.66;4939196;29;20308;-50
2021/12/12 06:02:55;;;;;;;16.67;10.57;;;7.60;77.90;;;10.14;61.26;101856.91;4939154;29;20261;-52
2021/12/12 06:05:24;;;;;;;18.90;11.33;;;7.50;78.00;;;10.19;60.51;101853.84;4939342;29;20202;-49
2021/12/12 06:07:55;;;;;;;19.23;11.37;;;7.50;78.20;;;10.20;60.97;101853.69;4938992;29;20217;-49
2021/12/12 06:10:24;;;;;;;16.13;10.83;;;7.60;78.30;;;10.22;60.91;101856.19;4938951;29;20193;-50
2021/12/12 06:12:55;;;;;;;18.57;10.53;;;7.60;78.20;;;10.22;60.90;101864.09;4939252;29;20202;-50
2021/12/12 06:15:27;;;;;;;19.07;10.30;;;7.60;78.30;;;10.16;61.33;101862.84;4938877;29;20197;-52
2021/12/12 06:17:57;;;;;;;14.80;10.00;;;7.50;78.20;;;10.13;60.73;101862.28;4938598;29;20210;-50
2021/12/12 06:20:27;;;;;;;15.63;10.07;;;7.50;78.30;;;10.12;61.04;101855.41;4945703;29;20224;-56
2021/12/12 06:22:56;;;;;;;14.80;9.43;;;7.50;78.40;;;10.09;60.88;101856.47;4947042;29;20198;-52
2021/12/12 06:25:25;;;;;;;15.77;9.67;;;7.50;78.50;;;10.07;61.39;101854.97;4946785;29;20202;-55
2021/12/12 06:27:54;;;;;;;16.00;10.23;;;7.50;78.70;;;10.04;61.84;101842.09;4944083;29;20277;-52
2021/12/12 06:30:24;;;;;;;15.30;9.63;;;7.50;78.80;;;10.00;61.58;101838.09;4946618;29;20241;-51
2021/12/12 06:32:53;;;;;;;17.77;10.00;;;7.50;78.90;;;9.96;62.17;101834.91;4946528;29;20560;-52
2021/12/12 06:35:21;;;;;;;17.53;9.80;;;7.40;79.10;;;9.93;61.61;101834.38;4946499;29;20252;-56
2021/12/12 06:37:50;;;;;;;14.57;9.57;;;7.40;79.20;;;9.89;62.08;101846.16;4930197;29;20228;-62
2021/12/12 06:40:21;;;;;;;17.97;8.83;;;7.40;79.50;;;9.88;62.58;101836.63;4928726;29;20731;-56
2021/12/12 06:42:49;;;;;;;21.13;9.97;;;7.40;79.70;;;9.84;62.90;101845.75;4946546;29;20224;-57
2021/12/12 06:45:18;;;;;;;16.33;8.87;;;7.30;80.80;;;9.77;63.30;101842.03;4946330;29;20261;-57
2021/12/12 06:47:46;;;;;;;13.03;8.20;;;7.30;80.30;;;9.68;63.87;101846.34;4947062;29;20282;-55
2021/12/12 06:50:14;;;;;;;17.20;8.10;;;7.30;80.70;;;9.65;63.62;101835.28;4933764;29;20214;-61
2021/12/12 06:52:43;;;;;;;13.43;8.47;;;7.30;80.70;;;9.65;63.78;101837.91;4935521;29;20209;-65
2021/12/12 06:55:13;;;;;;;13.70;9.00;;;7.30;80.90;;;9.60;63.82;101832.25;4951810;29;20225;-64
2021/12/12 06:57:42;;;;;;;14.87;6.77;;;7.20;81.20;;;9.57;64.62;101833.38;4954113;29;20237;-66
2021/12/12 07:00:15;;;;;;;12.77;8.10;;;7.20;81.40;;;9.59;64.60;101836.66;4953249;29;20259;-62
2021/12/12 07:02:45;;;;;;;14.80;8.20;;;7.20;81.40;;;9.60;64.81;101834.88;4952728;29;20205;-67
2021/12/12 07:05:19;;;;;;;13.80;7.30;;;7.20;81.90;;;9.59;64.88;101831.41;4951644;29;20628;-62
2021/12/12 07:07:50;;;;;;;12.80;8.00;;;7.20;81.90;;;9.59;64.74;101825.31;4948243;29;20290;-54
2021/12/12 07:10:23;;;;;;;12.63;7.67;;;7.20;81.90;;;9.60;64.96;101825.19;4952863;29;20625;-56
2021/12/12 07:12:55;;;;;;;10.47;7.20;;;7.20;82.30;;;9.61;64.68;101823.38;4950698;29;20616;-66
2021/12/12 07:15:27;;;;;;;13.67;7.10;;;7.20;82.50;;;9.54;65.09;101818.69;4951296;29;20203;-60
2021/12/12 07:18:00;;;;;;;14.57;6.87;;;7.20;82.50;;;9.54;65.28;101823.97;4950570;29;20639;-67
2021/12/12 07:20:28;;;;;;;10.67;7.27;;;7.20;82.80;;;9.51;65.84;101816.34;4954434;29;20202;-64
2021/12/12 07:22:56;;;;;;;13.10;7.73;;;7.20;83.00;;;9.50;66.03;101801.56;4953698;29;20226;-61
2021/12/12 07:25:24;;;;;;;12.13;6.93;;;7.20;83.10;;;9.48;65.54;101813.19;4936144;29;20237;-58
2021/12/12 07:27:53;;;;;;;10.97;6.33;;;7.20;83.20;;;9.53;66.06;101811.78;4934975;29;20240;-65
2021/12/12 07:30:21;;;;;;;10.77;6.33;;;7.20;83.30;;;9.54;65.45;101817.88;4934612;29;20298;-65
2021/12/12 07:32:50;;;;;;;10.40;6.23;;;7.20;83.40;;;9.54;65.89;101816.06;4933387;29;20248;-60
2021/12/12 07:35:20;;;;;;;12.33;6.90;;;7.20;83.40;;;9.53;65.99;101805.72;4933119;29;20217;-60
2021/12/12 07:37:48;;;;;;;13.73;6.60;;;7.20;83.60;;;9.53;65.75;101817.03;4935375;29;20207;-68
2021/12/12 07:40:17;;;;;;;11.00;6.10;;;7.20;83.70;;;9.57;66.11;101812.34;4935510;29;20233;-62
2021/12/12 07:42:46;;;;;;;7.73;5.07;;;7.20;83.80;;;9.50;66.29;101811.25;4940431;29;20205;-50
2021/12/12 07:45:16;;;;;;;11.03;5.37;;;7.20;83.90;;;9.49;65.94;101814.84;4937385;29;20194;-52
2021/12/12 07:47:43;;;;;;;9.03;5.50;;;7.20;83.90;;;9.59;65.84;101825.31;4937178;29;20225;-49
2021/12/12 07:50:15;;;;;;;8.60;5.67;;;7.20;83.70;;;9.63;66.20;101826.72;4937299;29;20201;-51
2021/12/12 07:52:50;;;;;;;5.97;5.10;;;7.20;83.70;;;9.64;65.85;101823.09;4920299;29;20193;-52
2021/12/12 07:55:19;;;;;;;8.90;5.20;;;7.20;83.70;;;9.69;65.92;101826.16;4935084;29;20669;-50
2021/12/12 07:57:46;;;;;;;11.07;5.50;;;7.20;83.60;;;9.72;65.43;101828.50;4927740;29;20577;-49
2021/12/12 08:00:20;;;;;;;9.33;5.43;;;7.30;83.70;;;9.73;65.44;101832.75;4937978;29;20201;-50
2021/12/12 08:02:50;;;;;;;6.83;5.23;;;7.30;83.60;;;9.71;65.71;101830.28;4936895;29;20281;-50
2021/12/12 08:05:27;;;;;;;7.03;5.40;;;7.30;83.50;;;9.71;65.34;101829.44;4937293;29;20196;-52
2021/12/12 08:07:58;;;;;;;7.67;5.20;;;7.30;83.40;;;9.75;65.75;101834.28;4936637;29;20213;-52
2021/12/12 08:10:27;;;;;;;12.63;4.90;;;7.30;83.30;;;9.80;65.88;101833.84;4918567;29;20225;-52
2021/12/12 08:12:55;;;;;;;6.63;5.10;;;7.30;83.40;;;9.79;65.60;101834.84;4930017;29;20666;-50
2021/12/12 08:15:23;;;;;;;9.90;5.57;;;7.30;83.40;;;9.79;65.62;101840.94;4932582;29;20618;-51
2021/12/12 08:17:51;;;;;;;8.00;4.90;;;7.30;83.40;;;9.84;65.37;101845.75;4935952;29;20221;-50
2021/12/12 08:20:20;;;;;;;7.87;5.70;;;7.40;83.50;;;9.85;65.31;101839.50;4937945;29;20527;-50
2021/12/12 08:22:49;;;;;;;7.73;5.17;;;7.40;83.70;;;9.87;65.61;101837.56;4937395;29;20196;-52
2021/12/12 08:25:19;;;;;;;6.63;5.00;;;7.40;83.50;;;9.84;65.28;101832.63;4935610;29;20663;-51
2021/12/12 08:27:48;;;;;;;6.93;5.13;;;7.40;83.50;;;9.88;64.97;101831.34;4933962;29;20304;-52
2021/12/12 08:30:19;;;;;;;8.67;5.83;;;7.40;83.40;;;9.88;65.46;101821.66;4935784;29;20198;-53
2021/12/12 08:32:50;;;;;;;10.53;5.10;;;7.40;83.50;;;9.86;65.78;101813.09;4924207;29;21776;-50
2021/12/12 08:35:22;;;;;;;7.43;5.10;;;7.40;83.50;;;9.85;65.33;101814.06;4931332;29;20207;-51
2021/12/12 08:37:51;;;;;;;7.77;5.13;;;7.40;83.50;;;9.86;65.71;101822.78;4937263;29;20210;-49
2021/12/12 08:40:26;;;;;;;7.13;4.83;;;7.40;83.60;;;9.88;65.62;101818.19;4937213;29;20194;-50
2021/12/12 08:42:55;;;;;;;6.50;4.53;;;7.40;83.70;;;9.89;65.12;101815.41;4930850;29;20269;-49
2021/12/12 08:45:26;;;;;;;6.33;4.80;;;7.40;83.60;;;9.92;65.77;101817.78;4925161;29;20239;-53
2021/12/12 08:47:55;;;;;;;5.97;4.60;;;7.40;83.70;;;9.91;65.77;101812.66;4923116;29;20697;-50
2021/12/12 08:50:28;;;;;;;4.57;3.83;;;7.50;83.70;;;9.88;65.42;101815.56;4929229;29;20611;-49
2021/12/12 08:52:58;;;;;;;5.90;4.80;;;7.50;83.80;;;9.90;65.81;101813.63;4935247;29;20200;-49
2021/12/12 08:55:33;;;;;;;5.37;3.50;;;7.50;83.90;;;9.93;65.70;101813.34;4934574;29;20213;-52
2021/12/12 08:58:17;;;;;;;5.97;4.17;;;7.50;83.70;;;9.97;65.58;101815.53;4936879;29;20217;-51
2021/12/12 09:00:57;;;;;;;4.47;3.83;;;7.50;83.90;;;9.96;65.87;101810.44;4921558;29;20210;-51
2021/12/12 09:03:32;;;;;;;4.27;3.60;;;7.50;83.70;;;9.96;65.46;101815.69;4935321;29;20723;-50
2021/12/12 09:06:03;;;;;;;7.53;3.80;;;7.60;83.80;;;10.03;65.63;101816.78;4935146;29;20667;-51
2021/12/12 09:08:41;;;;;;;4.83;3.63;;;7.60;83.70;;;10.07;65.46;101823.41;4934785;29;20214;-49
2021/12/12 09:11:22;;;;;;;4.47;3.77;;;7.60;83.80;;;10.12;65.68;101823.84;4930585;29;20238;-51
2021/12/12 09:13:57;;;;;;;5.80;3.40;;;7.60;83.70;;;10.17;64.74;101818.97;4923258;29;20206;-51
2021/12/12 09:16:32;;;;;;;4.30;3.43;;;7.70;83.70;;;10.22;65.45;101829.88;4939017;29;20240;-50
2021/12/12 09:19:07;;;;;;;5.77;3.50;;;7.70;83.60;;;10.28;64.93;101839.81;4936201;29;20216;-49
2021/12/12 09:21:49;;;;;;;3.40;3.03;;;7.70;83.60;;;10.37;65.21;101833.66;4930114;29;20581;-49
2021/12/12 09:24:43;;;;;;;4.37;3.60;;;7.80;83.70;;;10.37;64.50;101831.03;4938748;29;20201;-49
2021/12/12 09:27:22;;;;;;;4.13;3.40;;;7.80;83.60;;;10.37;65.14;101828.41;4933394;29;20712;-51
2021/12/12 09:29:57;;;;;;;4.40;3.50;;;7.80;83.60;;;10.33;65.06;101815.69;4904326;29;20241;-53
2021/12/12 09:32:32;;;;;;;3.17;2.97;;;7.80;83.60;;;10.36;64.95;101820.69;4932168;29;20197;-52
2021/12/12 09:35:10;;;;;;;4.07;3.33;;;7.90;83.60;;;10.37;65.26;101825.78;4940486;29;20289;-50
2021/12/12 09:37:44;;;;;;;3.60;2.80;;;7.90;83.80;;;10.41;65.10;101828.97;4939943;29;20221;-52
2021/12/12 09:40:24;;;;;;;3.83;2.83;;;7.90;83.80;;;10.53;64.83;101827.78;4940506;29;20201;-49
2021/12/12 09:43:33;;;;;;;3.67;3.37;;;8.00;84.00;;;10.51;64.80;101827.91;4923377;29;20228;-53
2021/12/12 09:46:26;;;;;;;3.53;3.23;;;8.00;83.90;;;10.50;65.36;101826.28;4940444;29;20221;-51
2021/12/12 09:53:32;;;;;;;5.00;3.97;;;8.10;83.70;;;10.60;64.72;101821.75;4904628;29;20198;-51
2021/12/12 09:56:08;;;;;;;5.03;4.43;;;8.10;84.00;;;10.59;64.59;101833.28;4862881;29;20204;-49
2021/12/12 09:58:49;;;;;;;4.40;3.50;;;8.10;83.70;;;10.63;65.09;101833.81;4911031;29;20276;-49
2021/12/12 10:01:24;;;;;;;5.13;4.53;;;8.10;83.70;;;10.67;64.85;101829.91;4938177;29;20209;-53
2021/12/12 10:04:15;;;;;;;4.20;3.90;;;8.20;84.00;;;10.69;64.79;101831.44;4944461;29;20197;-51
2021/12/12 10:06:52;;;;;;;4.27;3.87;;;8.20;83.90;;;10.78;65.17;101812.09;4941330;29;20197;-49
2021/12/12 10:09:28;;;;;;;4.80;4.30;;;8.20;84.00;;;10.81;64.83;101811.81;4939639;29;20217;-50
2021/12/12 10:12:04;;;;;;;5.00;4.63;;;8.30;84.00;;;10.85;64.64;101820.22;4939213;29;20284;-52
2021/12/12 10:14:45;;;;;;;5.67;5.17;;;8.30;84.10;;;10.83;64.63;101815.13;4940042;29;20566;-49
2021/12/12 10:17:23;;;;;;;5.07;4.67;;;8.30;83.90;;;10.91;65.07;101816.97;4939483;29;20305;-51
2021/12/12 10:20:00;;;;;;;5.83;4.77;;;8.30;83.90;;;10.93;65.02;101827.38;4939768;29;20182;-52
2021/12/12 10:22:41;;;;;;;5.03;4.67;;;8.30;83.90;;;10.99;64.60;101821.50;4908480;29;20217;-51
2021/12/12 10:25:15;;;;;;;4.83;4.43;;;8.40;84.20;;;11.01;64.83;101827.44;4939379;29;20194;-49
2021/12/12 10:27:52;;;;;;;4.97;4.57;;;8.40;84.00;;;11.05;64.68;101828.81;4939154;29;20582;-50
2021/12/12 10:30:26;;;;;;;6.87;5.33;;;8.50;84.10;;;11.11;64.22;101817.66;4939087;29;20200;-50
2021/12/12 10:33:04;;;;;;;5.63;5.17;;;8.50;84.00;;;11.15;64.08;101816.41;4922358;29;20214;-50
2021/12/12 10:35:40;;;;;;;5.00;4.57;;;8.50;83.80;;;11.17;64.25;101807.34;4919819;29;20190;-51
2021/12/12 10:38:16;;;;;;;7.10;6.23;;;8.50;83.70;;;11.17;64.58;101801.28;4926490;29;20223;-52
2021/12/12 10:40:50;;;;;;;6.10;5.50;;;8.60;83.80;;;11.16;64.60;101808.34;4939104;29;20281;-50
2021/12/12 10:43:30;;;;;;;5.83;5.33;;;8.60;83.50;;;11.19;63.92;101804.56;4938833;29;20284;-49
2021/12/12 10:46:06;;;;;;;5.60;5.00;;;8.60;83.50;;;11.30;64.10;101806.97;4939341;29;20218;-51
2021/12/12 10:48:46;;;;;;;6.10;5.60;;;8.60;83.70;;;11.37;64.54;101813.28;4940177;29;20222;-50
2021/12/12 10:51:21;;;;;;;5.50;5.00;;;8.70;83.80;;;11.47;64.02;101809.56;4938339;29;20569;-50
2021/12/12 10:54:01;;;;;;;5.87;5.37;;;8.70;83.80;;;11.54;63.53;101810.63;4939162;29;20225;-49
2021/12/12 10:56:38;;;;;;;5.37;4.90;;;8.80;83.90;;;11.65;63.85;101827.19;4939490;29;20186;-49
2021/12/12 10:59:19;;;;;;;6.80;6.20;;;8.80;83.90;;;11.67;63.58;101807.56;4926230;29;20308;-51